Terminal Aerodrome Forecast
Issued by NWS

Current Version | Previous Version | Text Only | Print | Product List | Glossary Off
Versions: 1 2 3 4 5 6 7 8 9 10 11 12 13 14 15 16

000
FTUS41 KILN 211611 AAA
TAFLUK
TAF AMD
KLUK 211611Z 2116/2212 01006KT P6SM BKN020
     FM211900 34008KT P6SM BKN200
     FM220000 35010KT P6SM BKN100
     FM220800 02010G18KT P6SM SCT250=

USA.gov is the U.S. government's official web portal to all federal, state and local government web resources and services.